createdAt,value
2018-07-28T00:00:54.362Z,27.80
2018-07-28T00:03:22.112Z,27.80
2018-07-28T00:05:49.884Z,27.80
2018-07-28T00:08:17.764Z,27.70
2018-07-28T00:10:45.498Z,27.70
2018-07-28T00:13:13.209Z,27.70
2018-07-28T00:15:40.938Z,27.70
2018-07-28T00:18:08.643Z,27.70
2018-07-28T00:20:36.436Z,27.70
2018-07-28T00:23:04.245Z,27.70
2018-07-28T00:25:42.347Z,27.70
2018-07-28T00:28:10.081Z,27.70
2018-07-28T00:30:37.837Z,27.70
2018-07-28T00:33:05.628Z,27.70
2018-07-28T00:35:34.377Z,27.70
2018-07-28T00:38:02.097Z,27.60
2018-07-28T00:40:29.878Z,27.60
2018-07-28T00:42:57.610Z,27.60
2018-07-28T00:45:25.377Z,27.60
2018-07-28T00:47:53.194Z,27.60
2018-07-28T00:50:20.922Z,27.60
2018-07-28T00:52:48.770Z,27.60
2018-07-28T00:55:16.574Z,27.60
2018-07-28T00:57:44.297Z,27.60
2018-07-28T01:00:12.089Z,27.60
2018-07-28T01:02:39.882Z,27.60
2018-07-28T01:05:07.948Z,27.60
2018-07-28T01:07:35.756Z,27.60
2018-07-28T01:10:04.162Z,27.60
2018-07-28T01:12:31.912Z,27.60
2018-07-28T01:15:00.712Z,27.60
2018-07-28T01:17:28.525Z,27.50
2018-07-28T01:19:56.232Z,27.50
2018-07-28T01:22:23.969Z,27.50
2018-07-28T01:24:51.764Z,27.50
2018-07-28T01:27:19.560Z,27.50
2018-07-28T01:29:47.308Z,27.50
2018-07-28T01:32:15.129Z,27.50
2018-07-28T01:34:42.979Z,27.50
2018-07-28T01:37:10.738Z,27.50
2018-07-28T01:39:38.476Z,27.40
2018-07-28T01:42:06.210Z,27.40
2018-07-28T01:44:34.030Z,27.40
2018-07-28T01:47:01.768Z,27.40
2018-07-28T01:49:29.528Z,27.40
2018-07-28T01:51:57.259Z,27.40
2018-07-28T01:54:24.994Z,27.40
2018-07-28T01:56:52.754Z,27.40
2018-07-28T01:59:20.517Z,27.40
2018-07-28T02:01:48.306Z,27.40
2018-07-28T02:04:16.087Z,27.40
2018-07-28T02:06:43.846Z,27.40
2018-07-28T02:09:12.081Z,27.40
2018-07-28T02:11:40.131Z,27.30
2018-07-28T02:14:08.404Z,27.30
2018-07-28T02:16:36.192Z,27.30
2018-07-28T02:19:04.055Z,27.30
2018-07-28T02:21:32.060Z,27.30
2018-07-28T02:23:59.778Z,27.30
2018-07-28T02:26:27.553Z,27.30
2018-07-28T02:28:55.431Z,27.30
2018-07-28T02:31:23.119Z,27.30
2018-07-28T02:33:50.828Z,27.30
2018-07-28T02:36:18.638Z,27.30
2018-07-28T02:38:46.379Z,27.20
2018-07-28T02:41:14.129Z,27.20
2018-07-28T02:43:41.905Z,27.20
2018-07-28T02:46:09.771Z,27.20
2018-07-28T02:48:37.508Z,27.20
2018-07-28T02:51:05.329Z,27.20
2018-07-28T02:53:33.115Z,27.20
2018-07-28T02:56:00.824Z,27.20
2018-07-28T02:58:28.602Z,27.10
2018-07-28T03:03:23.983Z,27.10
2018-07-28T03:05:51.752Z,27.10
2018-07-28T03:08:19.553Z,27.10
2018-07-28T03:10:47.325Z,27.10
2018-07-28T03:13:15.130Z,27.10
2018-07-28T03:15:42.923Z,27.10
2018-07-28T03:18:10.687Z,27.10
2018-07-28T03:20:38.455Z,27.10
2018-07-28T03:23:06.216Z,27.10
2018-07-28T03:25:33.932Z,27.10
2018-07-28T03:28:01.711Z,27.10
2018-07-28T03:30:29.446Z,27.00
2018-07-28T03:32:57.265Z,27.00
2018-07-28T03:35:24.951Z,27.00
2018-07-28T03:37:52.703Z,27.00
2018-07-28T03:40:20.463Z,27.00
2018-07-28T03:42:48.178Z,27.00
2018-07-28T03:45:15.942Z,27.00
2018-07-28T03:47:43.707Z,27.00
2018-07-28T03:50:11.472Z,27.00
2018-07-28T03:52:39.203Z,27.00
2018-07-28T03:55:07.902Z,27.00
2018-07-28T03:57:35.615Z,27.00
2018-07-28T04:00:05.259Z,26.90
2018-07-28T04:02:33.002Z,26.90
2018-07-28T04:05:00.695Z,26.90
2018-07-28T04:07:28.439Z,26.90
2018-07-28T04:09:56.178Z,26.90
2018-07-28T04:12:23.899Z,26.90
2018-07-28T04:14:51.690Z,26.90
2018-07-28T04:17:19.386Z,26.90
2018-07-28T04:19:47.132Z,26.80
2018-07-28T04:22:14.802Z,26.90
2018-07-28T04:24:42.466Z,26.80
2018-07-28T04:27:10.190Z,26.80
2018-07-28T04:29:37.909Z,26.80
2018-07-28T04:32:05.666Z,26.80
2018-07-28T04:34:33.397Z,26.80
2018-07-28T04:37:01.104Z,26.80
2018-07-28T04:39:28.804Z,26.80
2018-07-28T04:41:56.553Z,26.80
2018-07-28T04:44:24.359Z,26.80
2018-07-28T04:46:52.074Z,26.80
2018-07-28T04:49:19.746Z,26.70
2018-07-28T04:51:47.469Z,26.70
2018-07-28T04:54:15.154Z,26.70
2018-07-28T04:56:42.890Z,26.70
2018-07-28T04:59:10.576Z,26.70
2018-07-28T05:01:38.330Z,26.70
2018-07-28T05:04:06.088Z,26.70
2018-07-28T05:06:33.766Z,26.60
2018-07-28T05:09:01.455Z,26.60
2018-07-28T05:11:29.132Z,26.60
2018-07-28T05:16:24.411Z,26.60
2018-07-28T05:18:52.162Z,26.60
2018-07-28T05:21:19.859Z,26.60
2018-07-28T05:23:47.559Z,26.60
2018-07-28T05:26:15.252Z,26.60
2018-07-28T05:28:42.914Z,26.60
2018-07-28T05:31:10.592Z,26.60
2018-07-28T05:33:38.298Z,26.60
2018-07-28T05:38:33.628Z,26.50
2018-07-28T05:41:01.322Z,26.50
2018-07-28T05:43:28.991Z,26.50
2018-07-28T05:45:56.711Z,26.50
2018-07-28T05:48:24.461Z,26.50
2018-07-28T05:50:52.688Z,26.50
2018-07-28T05:53:20.371Z,26.50
2018-07-28T05:55:48.061Z,26.50
2018-07-28T05:58:15.788Z,26.50
2018-07-28T06:00:43.563Z,26.50
2018-07-28T06:03:11.343Z,26.40
2018-07-28T06:05:40.222Z,26.40
2018-07-28T06:08:07.891Z,26.40
2018-07-28T06:10:35.577Z,26.40
2018-07-28T06:13:03.294Z,26.40
2018-07-28T06:15:30.987Z,26.40
2018-07-28T06:17:58.667Z,26.40
2018-07-28T06:20:26.385Z,26.40
2018-07-28T06:22:54.149Z,26.40
2018-07-28T06:25:21.868Z,26.40
2018-07-28T06:27:49.586Z,26.40
2018-07-28T06:30:17.319Z,26.40
2018-07-28T06:32:45.038Z,26.40
2018-07-28T06:35:12.709Z,26.40
2018-07-28T06:37:40.367Z,26.40
2018-07-28T06:40:08.063Z,26.40
2018-07-28T06:45:03.469Z,26.40
2018-07-28T06:47:31.143Z,26.40
2018-07-28T06:49:58.830Z,26.30
2018-07-28T06:52:26.563Z,26.30
2018-07-28T06:54:54.576Z,26.30
2018-07-28T06:57:22.502Z,26.30
2018-07-28T06:59:50.228Z,26.30
2018-07-28T07:02:17.894Z,26.30
2018-07-28T07:04:46.948Z,26.30
2018-07-28T07:07:14.627Z,26.30
2018-07-28T07:09:42.316Z,26.30
2018-07-28T07:12:10.316Z,26.30
2018-07-28T07:14:37.987Z,26.30
2018-07-28T07:17:05.810Z,26.20
2018-07-28T07:19:33.519Z,26.30
2018-07-28T07:24:28.740Z,26.20
2018-07-28T07:26:56.437Z,26.20
2018-07-28T07:29:24.114Z,26.20
2018-07-28T07:31:51.803Z,26.20
2018-07-28T07:34:19.484Z,26.20
2018-07-28T07:36:47.158Z,26.20
2018-07-28T07:39:14.834Z,26.20
2018-07-28T07:41:42.587Z,26.20
2018-07-28T07:44:10.292Z,26.20
2018-07-28T07:46:37.980Z,26.20
2018-07-28T07:49:05.706Z,26.20
2018-07-28T07:51:33.395Z,26.20
2018-07-28T07:54:01.129Z,26.20
2018-07-28T07:56:28.870Z,26.20
2018-07-28T07:58:56.538Z,26.20
2018-07-28T08:01:24.236Z,26.20
2018-07-28T08:03:51.993Z,26.20
2018-07-28T08:06:19.775Z,26.20
2018-07-28T08:08:47.483Z,26.20
2018-07-28T08:11:15.191Z,26.20
2018-07-28T08:13:42.878Z,26.20
2018-07-28T08:16:10.549Z,26.20
2018-07-28T08:18:38.256Z,26.20
2018-07-28T08:21:06.044Z,26.20
2018-07-28T08:23:33.610Z,26.20
2018-07-28T08:26:01.283Z,26.20
2018-07-28T08:28:29.002Z,26.20
2018-07-28T08:30:56.671Z,26.20
2018-07-28T08:33:24.395Z,26.20
2018-07-28T08:35:52.108Z,26.20
2018-07-28T08:38:19.812Z,26.20
2018-07-28T08:40:47.544Z,26.20
2018-07-28T08:43:15.255Z,26.20
2018-07-28T08:45:42.955Z,26.20
2018-07-28T08:48:10.663Z,26.20
2018-07-28T08:50:38.339Z,26.20
2018-07-28T08:53:06.107Z,26.20
2018-07-28T08:55:33.949Z,26.20
2018-07-28T08:58:01.598Z,26.20
2018-07-28T09:00:29.267Z,26.30
2018-07-28T09:02:57.053Z,26.20
2018-07-28T09:05:24.853Z,26.30
2018-07-28T09:07:52.521Z,26.30
2018-07-28T09:10:20.205Z,26.30
2018-07-28T09:12:47.872Z,26.20
2018-07-28T09:15:15.553Z,26.30
2018-07-28T09:17:43.325Z,26.20
2018-07-28T09:20:10.983Z,26.30
2018-07-28T09:22:38.872Z,26.20
2018-07-28T09:25:07.051Z,26.20
2018-07-28T09:27:34.766Z,26.20
2018-07-28T09:30:02.527Z,26.20
2018-07-28T09:32:30.233Z,26.20
2018-07-28T09:34:57.931Z,26.20
2018-07-28T09:37:25.619Z,26.20
2018-07-28T09:39:53.434Z,26.10
2018-07-28T09:42:21.128Z,26.10
2018-07-28T09:44:48.821Z,26.10
2018-07-28T09:47:16.528Z,26.10
2018-07-28T09:49:44.242Z,26.10
2018-07-28T09:52:11.943Z,26.10
2018-07-28T09:54:39.635Z,26.10
2018-07-28T09:57:07.522Z,26.10
2018-07-28T09:59:35.191Z,26.10
2018-07-28T10:02:02.929Z,26.10
2018-07-28T10:06:58.178Z,26.10
2018-07-28T10:09:25.955Z,26.10
2018-07-28T10:11:53.649Z,26.10
2018-07-28T10:14:25.045Z,26.10
2018-07-28T10:16:52.729Z,26.10
2018-07-28T10:19:20.433Z,26.10
2018-07-28T10:21:48.105Z,26.10
2018-07-28T10:24:15.878Z,26.10
2018-07-28T10:26:43.589Z,26.10
2018-07-28T10:29:11.275Z,26.10
2018-07-28T10:31:38.976Z,26.10
2018-07-28T10:34:06.689Z,26.20
2018-07-28T10:36:34.393Z,26.20
2018-07-28T10:39:02.121Z,26.20
2018-07-28T10:41:29.843Z,26.20
2018-07-28T10:43:57.525Z,26.20
2018-07-28T10:46:25.213Z,26.30
2018-07-28T10:48:52.891Z,26.30
2018-07-28T10:51:20.587Z,26.20
2018-07-28T10:53:48.299Z,26.20
2018-07-28T10:56:16.295Z,26.20
2018-07-28T10:58:44.359Z,26.20
2018-07-28T11:01:12.057Z,26.10
2018-07-28T11:03:39.769Z,26.20
2018-07-28T11:06:07.861Z,26.20
2018-07-28T11:08:35.553Z,26.20
2018-07-28T11:11:03.376Z,26.20
2018-07-28T11:13:31.051Z,26.20
2018-07-28T11:15:58.761Z,26.20
2018-07-28T11:18:26.468Z,26.10
2018-07-28T11:20:54.529Z,26.10
2018-07-28T11:23:33.799Z,26.10
2018-07-28T11:26:01.645Z,26.10
2018-07-28T11:28:29.261Z,26.10
2018-07-28T11:30:56.951Z,26.10
2018-07-28T11:33:36.020Z,26.10
2018-07-28T11:36:15.011Z,26.30
2018-07-28T11:40:55.935Z,26.30
2018-07-28T11:43:34.957Z,26.30
2018-07-28T11:46:02.658Z,26.30
2018-07-28T11:48:30.352Z,26.30
2018-07-28T11:50:58.045Z,26.20
2018-07-28T11:53:25.699Z,26.20
2018-07-28T11:55:53.399Z,26.10
2018-07-28T11:58:21.150Z,26.10
2018-07-28T12:00:48.748Z,26.10
2018-07-28T12:03:16.404Z,26.10
2018-07-28T12:05:44.085Z,26.10
2018-07-28T12:08:11.761Z,26.10
2018-07-28T12:10:39.453Z,26.10
2018-07-28T12:13:07.145Z,26.10
2018-07-28T12:15:34.813Z,26.10
2018-07-28T12:18:02.465Z,26.00
2018-07-28T12:20:30.191Z,25.90
2018-07-28T12:22:57.879Z,25.80
2018-07-28T12:25:25.573Z,25.80
2018-07-28T12:27:53.552Z,25.80
2018-07-28T12:30:21.240Z,25.80
2018-07-28T12:32:48.915Z,25.80
2018-07-28T12:35:16.677Z,25.80
2018-07-28T12:37:44.423Z,25.80
2018-07-28T12:40:12.129Z,25.80
2018-07-28T12:42:39.834Z,25.80
2018-07-28T12:45:07.611Z,25.80
2018-07-28T12:47:35.289Z,25.80
2018-07-28T12:50:03.084Z,25.80
2018-07-28T12:52:30.800Z,25.80
2018-07-28T12:55:00.321Z,25.80
2018-07-28T12:57:28.407Z,25.80
2018-07-28T12:59:56.099Z,25.80
2018-07-28T13:02:23.860Z,25.80
2018-07-28T13:04:51.533Z,25.80
2018-07-28T13:07:19.291Z,25.80
2018-07-28T13:09:47.050Z,25.80
2018-07-28T13:12:14.697Z,25.80
2018-07-28T13:14:42.365Z,25.80
2018-07-28T13:17:10.100Z,25.80
2018-07-28T13:19:37.791Z,25.80
2018-07-28T13:22:05.804Z,25.80
2018-07-28T13:24:33.489Z,25.80
2018-07-28T13:27:01.175Z,25.80
2018-07-28T13:29:28.884Z,25.80
2018-07-28T13:31:56.551Z,25.80
2018-07-28T13:34:24.255Z,25.80
2018-07-28T13:36:51.953Z,25.80
2018-07-28T13:39:19.675Z,25.80
2018-07-28T13:41:47.402Z,25.80
2018-07-28T13:44:15.073Z,25.80
2018-07-28T13:46:42.746Z,25.80
2018-07-28T13:49:10.487Z,25.80
2018-07-28T13:51:38.173Z,25.80
2018-07-28T13:54:06.070Z,25.80
2018-07-28T13:56:33.893Z,25.80
2018-07-28T13:59:01.619Z,25.80
2018-07-28T14:01:29.319Z,25.80
2018-07-28T14:03:57.033Z,25.80
2018-07-28T14:06:24.725Z,25.80
2018-07-28T14:08:52.419Z,25.80
2018-07-28T14:11:20.168Z,25.80
2018-07-28T14:13:47.871Z,25.80
2018-07-28T14:16:15.548Z,25.80
2018-07-28T14:18:43.381Z,25.80
2018-07-28T14:21:11.105Z,25.90
2018-07-28T14:23:38.826Z,25.80
2018-07-28T14:26:06.595Z,25.90
2018-07-28T14:28:34.287Z,25.90
2018-07-28T14:31:02.007Z,25.90
2018-07-28T14:33:29.679Z,25.90
2018-07-28T14:35:57.357Z,25.90
2018-07-28T14:38:25.021Z,25.80
2018-07-28T14:40:52.724Z,25.80
2018-07-28T14:43:20.393Z,25.90
2018-07-28T14:45:48.144Z,25.90
2018-07-28T14:48:15.785Z,25.80
2018-07-28T14:50:43.480Z,25.80
2018-07-28T14:53:11.183Z,25.80
2018-07-28T14:55:38.896Z,25.80
2018-07-28T14:58:06.619Z,25.80
2018-07-28T15:00:34.316Z,25.80
2018-07-28T15:03:01.994Z,25.80
2018-07-28T15:05:29.733Z,25.70
2018-07-28T15:07:57.464Z,25.60
2018-07-28T15:10:25.192Z,25.50
2018-07-28T15:12:52.867Z,25.60
2018-07-28T15:15:20.541Z,25.60
2018-07-28T15:17:48.240Z,25.60
2018-07-28T15:20:15.965Z,25.70
2018-07-28T15:22:43.655Z,25.70
2018-07-28T15:25:11.360Z,25.70
2018-07-28T15:27:39.059Z,25.70
2018-07-28T15:30:07.075Z,25.70
2018-07-28T15:32:34.839Z,25.80
2018-07-28T15:35:02.585Z,25.80
2018-07-28T15:37:30.313Z,25.80
2018-07-28T15:39:58.003Z,25.70
2018-07-28T15:42:25.712Z,25.70
2018-07-28T15:44:53.387Z,25.70
2018-07-28T15:47:21.075Z,25.70
2018-07-28T15:49:48.728Z,25.60
2018-07-28T15:52:16.372Z,25.70
2018-07-28T15:54:44.443Z,25.70
2018-07-28T15:57:12.123Z,25.70
2018-07-28T15:59:39.793Z,25.70
2018-07-28T16:02:07.455Z,25.70
2018-07-28T16:04:35.179Z,25.70
2018-07-28T16:07:02.861Z,25.70
2018-07-28T16:09:30.561Z,25.70
2018-07-28T16:11:58.287Z,25.70
2018-07-28T16:14:26.019Z,25.70
2018-07-28T16:16:53.688Z,25.60
2018-07-28T16:19:22.119Z,25.60
2018-07-28T16:21:49.817Z,25.50
2018-07-28T16:26:45.069Z,25.50
2018-07-28T16:29:12.763Z,25.50
2018-07-28T16:31:40.435Z,25.40
2018-07-28T16:34:08.147Z,25.40
2018-07-28T16:36:35.823Z,25.50
2018-07-28T16:39:05.277Z,25.50
2018-07-28T16:41:32.970Z,25.60
2018-07-28T16:44:00.672Z,25.70
2018-07-28T16:46:28.417Z,25.70
2018-07-28T16:48:56.110Z,25.80
2018-07-28T16:51:23.779Z,25.80
2018-07-28T16:53:51.485Z,25.80
2018-07-28T16:56:19.173Z,25.90
2018-07-28T16:58:46.883Z,25.90
2018-07-28T17:01:14.589Z,26.00
2018-07-28T17:03:42.264Z,26.00
2018-07-28T17:06:09.935Z,26.00
2018-07-28T17:08:37.625Z,26.00
2018-07-28T17:11:05.306Z,26.10
2018-07-28T17:13:32.999Z,26.10
2018-07-28T17:16:00.662Z,26.10
2018-07-28T17:18:28.357Z,26.10
2018-07-28T17:20:56.036Z,26.10
2018-07-28T17:23:23.735Z,26.20
2018-07-28T17:25:51.429Z,26.20
2018-07-28T17:28:19.175Z,26.20
2018-07-28T17:30:46.917Z,26.20
2018-07-28T17:33:14.536Z,26.30
2018-07-28T17:35:42.185Z,26.30
2018-07-28T17:38:09.888Z,26.30
2018-07-28T17:40:37.552Z,26.30
2018-07-28T17:43:05.251Z,26.30
2018-07-28T17:45:32.922Z,26.30
2018-07-28T17:48:00.631Z,26.30
2018-07-28T17:50:28.295Z,26.30
2018-07-28T17:52:56.035Z,26.40
2018-07-28T17:55:23.709Z,26.40
2018-07-28T17:57:51.396Z,26.40
2018-07-28T18:00:19.133Z,26.40
2018-07-28T18:02:46.800Z,26.40
2018-07-28T18:05:14.491Z,26.40
2018-07-28T18:07:42.262Z,26.40
2018-07-28T18:10:09.906Z,26.40
2018-07-28T18:12:37.613Z,26.40
2018-07-28T18:15:05.663Z,26.40
2018-07-28T18:17:33.397Z,26.40
2018-07-28T18:20:01.088Z,26.40
2018-07-28T18:22:28.748Z,26.40
2018-07-28T18:24:56.591Z,26.40
2018-07-28T18:27:24.502Z,26.40
2018-07-28T18:29:52.224Z,26.40
2018-07-28T18:32:20.068Z,26.50
2018-07-28T18:34:47.891Z,26.40
2018-07-28T18:37:15.751Z,26.40
2018-07-28T18:39:43.532Z,26.40
2018-07-28T18:42:11.227Z,26.40
2018-07-28T18:44:38.930Z,26.40
2018-07-28T18:47:06.802Z,26.40
2018-07-28T18:49:34.582Z,26.40
2018-07-28T18:52:02.325Z,26.40
2018-07-28T18:54:30.051Z,26.40
2018-07-28T18:56:57.831Z,26.40
2018-07-28T18:59:25.609Z,26.40
2018-07-28T19:01:53.341Z,26.40
2018-07-28T19:04:21.091Z,26.40
2018-07-28T19:06:48.850Z,26.40
2018-07-28T19:09:22.125Z,26.40
2018-07-28T19:11:49.895Z,26.40
2018-07-28T19:14:23.229Z,26.40
2018-07-28T19:16:50.973Z,26.40
2018-07-28T19:19:19.269Z,26.40
2018-07-28T19:21:47.117Z,26.40
2018-07-28T19:24:14.904Z,26.40
2018-07-28T19:26:42.669Z,26.40
2018-07-28T19:29:15.955Z,26.40
2018-07-28T19:31:43.789Z,26.40
2018-07-28T19:34:11.533Z,26.40
2018-07-28T19:36:44.874Z,26.40
2018-07-28T19:39:12.582Z,26.40
2018-07-28T19:41:45.892Z,26.40
2018-07-28T19:44:13.640Z,26.40
2018-07-28T19:46:41.423Z,26.40
2018-07-28T19:49:09.192Z,26.40
2018-07-28T19:51:37.278Z,26.40
2018-07-28T19:54:05.109Z,26.40
2018-07-28T19:56:33.075Z,26.40
2018-07-28T19:59:00.821Z,26.40
2018-07-28T20:01:28.578Z,26.40
2018-07-28T20:03:56.260Z,26.40
2018-07-28T20:06:23.960Z,26.40
2018-07-28T20:08:51.717Z,26.40
2018-07-28T20:11:19.463Z,26.40
2018-07-28T20:13:47.159Z,26.40
2018-07-28T20:16:14.940Z,26.40
2018-07-28T20:18:42.701Z,26.30
2018-07-28T20:21:10.432Z,26.10
2018-07-28T20:23:38.221Z,26.10
2018-07-28T20:26:05.945Z,26.00
2018-07-28T20:28:33.827Z,25.90
2018-07-28T20:31:01.585Z,25.90
2018-07-28T20:33:29.314Z,25.80
2018-07-28T20:35:57.380Z,25.80
2018-07-28T20:38:25.071Z,25.80
2018-07-28T20:40:52.828Z,25.70
2018-07-28T20:43:20.647Z,25.60
2018-07-28T20:45:48.466Z,25.60
2018-07-28T20:48:16.277Z,25.60
2018-07-28T20:50:44.048Z,25.50
2018-07-28T20:53:11.777Z,25.40
2018-07-28T20:55:39.540Z,25.40
2018-07-28T20:58:07.276Z,25.30
2018-07-28T21:00:35.007Z,25.20
2018-07-28T21:03:02.766Z,25.20
2018-07-28T21:07:58.083Z,25.10
2018-07-28T21:10:25.875Z,25.00
2018-07-28T21:12:53.600Z,25.00
2018-07-28T21:15:21.403Z,25.00
2018-07-28T21:17:49.197Z,25.10
2018-07-28T21:20:16.994Z,25.30
2018-07-28T21:22:44.814Z,25.40
2018-07-28T21:25:12.638Z,25.50
2018-07-28T21:27:40.312Z,25.70
2018-07-28T21:32:36.060Z,25.80
2018-07-28T21:35:03.921Z,25.80
2018-07-28T21:37:31.682Z,25.90
2018-07-28T21:39:59.409Z,25.90
2018-07-28T21:42:27.107Z,26.00
2018-07-28T21:44:54.849Z,26.00
2018-07-28T21:47:22.707Z,26.00
2018-07-28T21:49:50.408Z,26.10
2018-07-28T21:52:18.230Z,26.10
2018-07-28T21:54:45.985Z,26.10
2018-07-28T21:57:13.727Z,26.10
2018-07-28T21:59:41.468Z,26.10
2018-07-28T22:02:09.255Z,26.10
2018-07-28T22:04:38.806Z,26.10
2018-07-28T22:07:06.590Z,26.10
2018-07-28T22:12:02.035Z,26.10
2018-07-28T22:14:29.812Z,26.10
2018-07-28T22:16:57.548Z,26.10
2018-07-28T22:19:25.363Z,26.10
2018-07-28T22:21:53.162Z,26.10
2018-07-28T22:24:20.944Z,26.10
2018-07-28T22:26:48.713Z,26.00
2018-07-28T22:29:16.472Z,26.00
2018-07-28T22:31:44.321Z,26.00
2018-07-28T22:34:12.115Z,26.00
2018-07-28T22:39:08.910Z,26.00
2018-07-28T22:41:36.661Z,25.90
2018-07-28T22:44:04.515Z,26.00
2018-07-28T22:46:32.397Z,25.90
2018-07-28T22:49:00.170Z,25.90
2018-07-28T22:51:28.066Z,25.90
2018-07-28T22:53:55.802Z,25.90
2018-07-28T22:56:23.559Z,25.90
2018-07-28T22:58:51.331Z,25.90
2018-07-28T23:01:19.447Z,25.90
2018-07-28T23:03:47.109Z,25.90
2018-07-28T23:06:14.863Z,25.80
2018-07-28T23:08:42.675Z,25.80
2018-07-28T23:11:10.524Z,25.80
2018-07-28T23:13:38.285Z,25.80
2018-07-28T23:17:09.212Z,25.80
2018-07-28T23:19:36.952Z,25.80
2018-07-28T23:22:04.699Z,25.80
2018-07-28T23:24:32.439Z,25.80
2018-07-28T23:27:00.160Z,25.80
2018-07-28T23:29:27.863Z,25.70
2018-07-28T23:31:55.607Z,25.70
2018-07-28T23:34:23.340Z,25.70
2018-07-28T23:36:51.135Z,25.70
2018-07-28T23:39:18.872Z,25.60
2018-07-28T23:41:46.633Z,25.60
2018-07-28T23:44:14.471Z,25.60
2018-07-28T23:46:43.185Z,25.60
2018-07-28T23:49:10.972Z,25.60
2018-07-28T23:51:38.739Z,25.60
2018-07-28T23:54:06.567Z,25.50
2018-07-28T23:56:34.441Z,25.50
2018-07-28T23:59:02.249Z,25.50
